Weather at Fort Lauderdale Hollywood International Airport

Public forecast

Using degrees Fahrenheit for public forecast. Weather courtesy of forecast.io.

Current aviation weather report (METAR) for Fort Lauderdale Hollywood International Airport

Retrieved 2021/01/20 05:53 UTC (47 minutes ago):

KFLL 200553Z 07006KT 10SM FEW039 19/12 A3026 RMK AO2 SLP245 T01890122 10200 20183 58015

Aviation forecast (TAF) for Fort Lauderdale Hollywood International Airport

Retrieved 2021/01/20 06:50 UTC (0 seconds ago):

TAF KFLL 200545Z 2006/2112 VRB04KT P6SM FEW040 FM201500 03010KT P6SM FEW040 SCT250 FM210200 VRB04KT P6SM SKC